TimePST,TemperatureF,Dew PointF,Humidity,Sea Level PressureIn,VisibilityMPH,Wind Direction,Wind SpeedMPH,Gust SpeedMPH,PrecipitationIn,Events,Conditions,WindDirDegrees,DateUTC
12:52 AM,48.0,39.9,74,29.98,-9999.0,South,11.5,-,N/A,,Unknown,170,2012-12-05 08:52:00
1:52 AM,48.9,39.9,71,29.99,-9999.0,South,12.7,-,N/A,,Unknown,190,2012-12-05 09:52:00
2:52 AM,48.0,42.1,80,30.00,-9999.0,South,10.4,-,0.01,,Unknown,190,2012-12-05 10:52:00
3:52 AM,46.9,42.1,83,30.01,-9999.0,SSW,18.4,29.9,N/A,,Unknown,200,2012-12-05 11:52:00
4:52 AM,46.9,41.0,80,30.01,-9999.0,South,16.1,-,N/A,,Unknown,190,2012-12-05 12:52:00
6:52 AM,48.0,39.0,71,30.02,-9999.0,South,15.0,-,N/A,,Unknown,190,2012-12-05 14:52:00
7:52 AM,48.0,37.9,68,30.03,-9999.0,SSW,11.5,-,N/A,,Unknown,200,2012-12-05 15:52:00
8:52 AM,48.9,39.9,71,30.05,-9999.0,SSW,12.7,-,N/A,,Unknown,200,2012-12-05 16:52:00
9:52 AM,53.1,39.0,59,30.05,-9999.0,SSW,19.6,26.5,N/A,,Unknown,210,2012-12-05 17:52:00
10:52 AM,55.9,37.0,49,30.04,-9999.0,SW,21.9,31.1,N/A,,Unknown,230,2012-12-05 18:52:00
11:52 AM,55.9,37.0,49,30.03,-9999.0,SW,23.0,31.1,N/A,,Unknown,220,2012-12-05 19:52:00
12:52 PM,55.9,35.1,45,30.03,-9999.0,SW,17.3,26.5,N/A,,Unknown,230,2012-12-05 20:52:00
1:52 PM,55.9,30.0,37,30.01,-9999.0,SW,18.4,26.5,N/A,,Unknown,230,2012-12-05 21:52:00
2:52 PM,55.9,30.9,39,30.02,-9999.0,SW,16.1,19.6,N/A,,Unknown,230,2012-12-05 22:52:00
3:52 PM,52.0,32.0,47,30.04,-9999.0,WSW,10.4,-,N/A,,Unknown,240,2012-12-05 23:52:00
4:52 PM,45.0,32.0,60,30.06,-9999.0,SE,8.1,-,N/A,,Unknown,140,2012-12-06 00:52:00
5:52 PM,42.1,33.1,70,30.08,-9999.0,SSE,10.4,-,N/A,,Unknown,160,2012-12-06 01:52:00
6:52 PM,41.0,32.0,70,30.07,-9999.0,South,10.4,-,N/A,,Unknown,190,2012-12-06 02:52:00
7:52 PM,37.9,32.0,79,30.08,-9999.0,South,8.1,-,N/A,,Unknown,190,2012-12-06 03:52:00
8:52 PM,34.0,28.9,82,30.11,-9999.0,Calm,Calm,-,N/A,,Unknown,0,2012-12-06 04:52:00
9:52 PM,28.9,27.0,92,30.11,-9999.0,South,5.8,-,N/A,,Unknown,190,2012-12-06 05:52:00
10:52 PM,30.9,27.0,85,30.09,-9999.0,Calm,Calm,-,N/A,,Unknown,0,2012-12-06 06:52:00
11:52 PM,32.0,28.0,85,30.08,-9999.0,Calm,Calm,-,N/A,,Unknown,0,2012-12-06 07:52:00